sensor_id;sensor_type;location;lat;lon;timestamp;pressure;altitude;pressure_sealevel;temperature
24586;BMP280;12743;52.262;6.172;2023-01-31T00:01:22;100635.50;;;2.97
24586;BMP280;12743;52.262;6.172;2023-01-31T00:03:56;100601.94;;;2.72
24586;BMP280;12743;52.262;6.172;2023-01-31T00:06:26;100641.00;;;2.91
24586;BMP280;12743;52.262;6.172;2023-01-31T00:08:53;100637.41;;;2.82
24586;BMP280;12743;52.262;6.172;2023-01-31T00:11:22;100647.00;;;2.86
24586;BMP280;12743;52.262;6.172;2023-01-31T00:13:50;100640.00;;;2.87
24586;BMP280;12743;52.262;6.172;2023-01-31T00:16:17;100634.81;;;2.87
24586;BMP280;12743;52.262;6.172;2023-01-31T00:18:44;100631.22;;;2.78
24586;BMP280;12743;52.262;6.172;2023-01-31T00:21:17;100640.53;;;2.84
24586;BMP280;12743;52.262;6.172;2023-01-31T00:23:45;100649.09;;;2.79
24586;BMP280;12743;52.262;6.172;2023-01-31T00:26:21;100613.19;;;2.52
24586;BMP280;12743;52.262;6.172;2023-01-31T00:28:49;100629.13;;;2.80
24586;BMP280;12743;52.262;6.172;2023-01-31T00:31:18;100632.78;;;2.74
24586;BMP280;12743;52.262;6.172;2023-01-31T00:33:48;100632.56;;;2.70
24586;BMP280;12743;52.262;6.172;2023-01-31T00:36:18;100635.38;;;2.68
24586;BMP280;12743;52.262;6.172;2023-01-31T00:38:50;100626.63;;;2.64
24586;BMP280;12743;52.262;6.172;2023-01-31T00:41:18;100624.81;;;2.65
24586;BMP280;12743;52.262;6.172;2023-01-31T00:43:45;100620.16;;;2.62
24586;BMP280;12743;52.262;6.172;2023-01-31T00:46:11;100628.50;;;2.54
24586;BMP280;12743;52.262;6.172;2023-01-31T00:48:38;100622.53;;;2.53
24586;BMP280;12743;52.262;6.172;2023-01-31T00:51:05;100625.13;;;2.58
24586;BMP280;12743;52.262;6.172;2023-01-31T00:53:32;100609.91;;;2.42
24586;BMP280;12743;52.262;6.172;2023-01-31T00:56:06;100611.66;;;2.51
24586;BMP280;12743;52.262;6.172;2023-01-31T00:58:34;100609.81;;;2.52
24586;BMP280;12743;52.262;6.172;2023-01-31T01:01:14;100600.78;;;2.54
24586;BMP280;12743;52.262;6.172;2023-01-31T01:03:43;100611.19;;;2.39
24586;BMP280;12743;52.262;6.172;2023-01-31T01:06:11;100603.69;;;2.38
24586;BMP280;12743;52.262;6.172;2023-01-31T01:08:41;100574.94;;;2.29
24586;BMP280;12743;52.262;6.172;2023-01-31T01:11:10;100602.09;;;2.47
24586;BMP280;12743;52.262;6.172;2023-01-31T01:13:38;100593.56;;;2.41
24586;BMP280;12743;52.262;6.172;2023-01-31T01:16:19;100585.25;;;2.39
24586;BMP280;12743;52.262;6.172;2023-01-31T01:18:46;100582.19;;;2.37
24586;BMP280;12743;52.262;6.172;2023-01-31T01:21:25;100589.41;;;2.40
24586;BMP280;12743;52.262;6.172;2023-01-31T01:23:55;100586.81;;;2.40
24586;BMP280;12743;52.262;6.172;2023-01-31T01:26:27;100575.44;;;2.36
24586;BMP280;12743;52.262;6.172;2023-01-31T01:28:55;100556.88;;;2.24
24586;BMP280;12743;52.262;6.172;2023-01-31T01:31:22;100591.50;;;2.38
24586;BMP280;12743;52.262;6.172;2023-01-31T01:33:58;100588.63;;;2.45
24586;BMP280;12743;52.262;6.172;2023-01-31T01:36:25;100595.88;;;2.43
24586;BMP280;12743;52.262;6.172;2023-01-31T01:38:52;100592.75;;;2.46
24586;BMP280;12743;52.262;6.172;2023-01-31T01:41:22;100588.13;;;2.38
24586;BMP280;12743;52.262;6.172;2023-01-31T01:43:52;100586.59;;;2.37
24586;BMP280;12743;52.262;6.172;2023-01-31T01:46:35;100604.44;;;2.48
24586;BMP280;12743;52.262;6.172;2023-01-31T01:49:24;100603.63;;;2.53
24586;BMP280;12743;52.262;6.172;2023-01-31T01:51:54;100597.91;;;2.56
24586;BMP280;12743;52.262;6.172;2023-01-31T01:54:28;100603.38;;;2.54
24586;BMP280;12743;52.262;6.172;2023-01-31T01:57:00;100591.44;;;2.53
24586;BMP280;12743;52.262;6.172;2023-01-31T01:59:42;100592.72;;;2.56
24586;BMP280;12743;52.262;6.172;2023-01-31T02:02:12;100598.97;;;2.55
24586;BMP280;12743;52.262;6.172;2023-01-31T02:04:41;100587.78;;;2.59
24586;BMP280;12743;52.262;6.172;2023-01-31T02:07:10;100597.31;;;2.64
24586;BMP280;12743;52.262;6.172;2023-01-31T02:12:08;100599.63;;;2.65
24586;BMP280;12743;52.262;6.172;2023-01-31T02:14:35;100594.97;;;2.62
24586;BMP280;12743;52.262;6.172;2023-01-31T02:17:02;100594.97;;;2.67
24586;BMP280;12743;52.262;6.172;2023-01-31T02:22:21;100589.50;;;2.74
24586;BMP280;12743;52.262;6.172;2023-01-31T02:27:53;100585.53;;;2.82
24586;BMP280;12743;52.262;6.172;2023-01-31T02:30:50;100578.06;;;2.75
24586;BMP280;12743;52.262;6.172;2023-01-31T02:33:36;100581.22;;;2.67
24586;BMP280;12743;52.262;6.172;2023-01-31T02:44:37;100540.06;;;2.60
24586;BMP280;12743;52.262;6.172;2023-01-31T02:47:52;100550.13;;;2.67
24586;BMP280;12743;52.262;6.172;2023-01-31T02:50:30;100543.13;;;2.67
24586;BMP280;12743;52.262;6.172;2023-01-31T02:53:09;100531.94;;;2.72
24586;BMP280;12743;52.262;6.172;2023-01-31T02:55:40;100517.69;;;2.69
24586;BMP280;12743;52.262;6.172;2023-01-31T02:58:32;100537.34;;;2.81
24586;BMP280;12743;52.262;6.172;2023-01-31T03:01:01;100526.19;;;2.80
24586;BMP280;12743;52.262;6.172;2023-01-31T03:03:34;100524.31;;;2.91
24586;BMP280;12743;52.262;6.172;2023-01-31T03:08:40;100512.03;;;2.96
24586;BMP280;12743;52.262;6.172;2023-01-31T03:11:09;100503.72;;;2.99
24586;BMP280;12743;52.262;6.172;2023-01-31T03:16:23;100502.66;;;3.00
24586;BMP280;12743;52.262;6.172;2023-01-31T03:19:28;100499.94;;;3.15
24586;BMP280;12743;52.262;6.172;2023-01-31T03:22:04;100502.34;;;3.07
24586;BMP280;12743;52.262;6.172;2023-01-31T03:24:32;100507.47;;;3.17
24586;BMP280;12743;52.262;6.172;2023-01-31T03:27:00;100498.91;;;3.16
24586;BMP280;12743;52.262;6.172;2023-01-31T03:29:33;100473.19;;;3.20
24586;BMP280;12743;52.262;6.172;2023-01-31T03:32:06;100487.63;;;3.26
24586;BMP280;12743;52.262;6.172;2023-01-31T03:34:37;100476.75;;;3.24
24586;BMP280;12743;52.262;6.172;2023-01-31T03:37:16;100483.59;;;3.39
24586;BMP280;12743;52.262;6.172;2023-01-31T03:40:04;100487.75;;;3.40
24586;BMP280;12743;52.262;6.172;2023-01-31T03:42:56;100486.84;;;3.49
24586;BMP280;12743;52.262;6.172;2023-01-31T03:45:35;100484.47;;;3.53
24586;BMP280;12743;52.262;6.172;2023-01-31T03:48:06;100465.81;;;3.51
24586;BMP280;12743;52.262;6.172;2023-01-31T03:50:57;100443.97;;;3.33
24586;BMP280;12743;52.262;6.172;2023-01-31T03:53:36;100472.09;;;3.68
24586;BMP280;12743;52.262;6.172;2023-01-31T03:56:15;100458.63;;;3.66
24586;BMP280;12743;52.262;6.172;2023-01-31T03:58:47;100463.34;;;3.64
24586;BMP280;12743;52.262;6.172;2023-01-31T04:01:17;100427.28;;;3.58
24586;BMP280;12743;52.262;6.172;2023-01-31T04:03:49;100448.16;;;3.71
24586;BMP280;12743;52.262;6.172;2023-01-31T04:06:18;100444.25;;;3.74
24586;BMP280;12743;52.262;6.172;2023-01-31T04:08:44;100439.53;;;3.76
24586;BMP280;12743;52.262;6.172;2023-01-31T04:11:12;100441.34;;;3.75
24586;BMP280;12743;52.262;6.172;2023-01-31T04:13:40;100443.91;;;3.80
24586;BMP280;12743;52.262;6.172;2023-01-31T04:16:07;100433.38;;;3.91
24586;BMP280;12743;52.262;6.172;2023-01-31T04:18:33;100408.25;;;3.67
24586;BMP280;12743;52.262;6.172;2023-01-31T04:21:04;100429.44;;;3.93
24586;BMP280;12743;52.262;6.172;2023-01-31T04:23:30;100411.06;;;3.90
24586;BMP280;12743;52.262;6.172;2023-01-31T04:25:57;100387.50;;;3.81
24586;BMP280;12743;52.262;6.172;2023-01-31T04:28:24;100409.56;;;4.02
24586;BMP280;12743;52.262;6.172;2023-01-31T04:30:54;100376.13;;;3.96
24586;BMP280;12743;52.262;6.172;2023-01-31T04:33:21;100384.41;;;3.98
24586;BMP280;12743;52.262;6.172;2023-01-31T04:35:51;100391.78;;;4.09
24586;BMP280;12743;52.262;6.172;2023-01-31T04:38:18;100379.56;;;4.10
24586;BMP280;12743;52.262;6.172;2023-01-31T04:40:44;100381.28;;;4.01
24586;BMP280;12743;52.262;6.172;2023-01-31T04:43:11;100379.38;;;4.06
24586;BMP280;12743;52.262;6.172;2023-01-31T04:45:37;100378.59;;;4.06
24586;BMP280;12743;52.262;6.172;2023-01-31T04:48:04;100377.47;;;4.12
24586;BMP280;12743;52.262;6.172;2023-01-31T04:50:31;100379.97;;;4.17
24586;BMP280;12743;52.262;6.172;2023-01-31T04:52:58;100372.16;;;4.17
24586;BMP280;12743;52.262;6.172;2023-01-31T04:55:25;100366.97;;;4.17
24586;BMP280;12743;52.262;6.172;2023-01-31T04:57:52;100351.72;;;4.29
24586;BMP280;12743;52.262;6.172;2023-01-31T05:00:19;100353.91;;;4.22
24586;BMP280;12743;52.262;6.172;2023-01-31T05:02:46;100330.28;;;4.05
24586;BMP280;12743;52.262;6.172;2023-01-31T05:05:12;100345.53;;;4.25
24586;BMP280;12743;52.262;6.172;2023-01-31T05:07:39;100324.94;;;4.28
24586;BMP280;12743;52.262;6.172;2023-01-31T05:10:06;100296.13;;;4.11
24586;BMP280;12743;52.262;6.172;2023-01-31T05:12:33;100328.09;;;4.25
24586;BMP280;12743;52.262;6.172;2023-01-31T05:14:59;100319.47;;;4.30
24586;BMP280;12743;52.262;6.172;2023-01-31T05:17:27;100330.34;;;4.32
24586;BMP280;12743;52.262;6.172;2023-01-31T05:19:55;100324.38;;;4.31
24586;BMP280;12743;52.262;6.172;2023-01-31T05:22:22;100314.28;;;4.30
24586;BMP280;12743;52.262;6.172;2023-01-31T05:24:50;100316.31;;;4.33
24586;BMP280;12743;52.262;6.172;2023-01-31T05:27:17;100318.00;;;4.24
24586;BMP280;12743;52.262;6.172;2023-01-31T05:29:44;100282.38;;;4.11
24586;BMP280;12743;52.262;6.172;2023-01-31T05:32:12;100302.81;;;4.31
24586;BMP280;12743;52.262;6.172;2023-01-31T05:34:39;100301.84;;;4.27
24586;BMP280;12743;52.262;6.172;2023-01-31T05:37:05;100299.94;;;4.32
24586;BMP280;12743;52.262;6.172;2023-01-31T05:39:32;100300.09;;;4.36
24586;BMP280;12743;52.262;6.172;2023-01-31T05:41:59;100288.16;;;4.35
24586;BMP280;12743;52.262;6.172;2023-01-31T05:44:25;100300.56;;;4.38
24586;BMP280;12743;52.262;6.172;2023-01-31T05:46:52;100288.28;;;4.30
24586;BMP280;12743;52.262;6.172;2023-01-31T05:49:18;100291.72;;;4.39
24586;BMP280;12743;52.262;6.172;2023-01-31T05:51:45;100293.19;;;4.45
24586;BMP280;12743;52.262;6.172;2023-01-31T05:54:11;100280.69;;;4.33
24586;BMP280;12743;52.262;6.172;2023-01-31T05:56:38;100259.13;;;4.33
24586;BMP280;12743;52.262;6.172;2023-01-31T05:59:05;100272.97;;;4.42
24586;BMP280;12743;52.262;6.172;2023-01-31T06:01:31;100282.31;;;4.43
24586;BMP280;12743;52.262;6.172;2023-01-31T06:03:58;100290.59;;;4.45
24586;BMP280;12743;52.262;6.172;2023-01-31T06:06:26;100280.47;;;4.44
24586;BMP280;12743;52.262;6.172;2023-01-31T06:08:52;100286.63;;;4.48
24586;BMP280;12743;52.262;6.172;2023-01-31T06:11:19;100283.06;;;4.57
24586;BMP280;12743;52.262;6.172;2023-01-31T06:13:46;100270.28;;;4.47
24586;BMP280;12743;52.262;6.172;2023-01-31T06:16:14;100277.31;;;4.60
24586;BMP280;12743;52.262;6.172;2023-01-31T06:18:41;100277.09;;;4.57
24586;BMP280;12743;52.262;6.172;2023-01-31T06:21:07;100274.00;;;4.55
24586;BMP280;12743;52.262;6.172;2023-01-31T06:23:34;100283.19;;;4.52
24586;BMP280;12743;52.262;6.172;2023-01-31T06:26:01;100273.22;;;4.54
24586;BMP280;12743;52.262;6.172;2023-01-31T06:28:27;100282.72;;;4.50
24586;BMP280;12743;52.262;6.172;2023-01-31T06:30:54;100270.19;;;4.52
24586;BMP280;12743;52.262;6.172;2023-01-31T06:33:21;100260.72;;;4.56
24586;BMP280;12743;52.262;6.172;2023-01-31T06:35:59;100255.22;;;4.58
24586;BMP280;12743;52.262;6.172;2023-01-31T06:38:27;100245.00;;;4.61
24586;BMP280;12743;52.262;6.172;2023-01-31T06:40:54;100246.56;;;4.62
24586;BMP280;12743;52.262;6.172;2023-01-31T06:43:21;100253.59;;;4.62
24586;BMP280;12743;52.262;6.172;2023-01-31T06:45:47;100253.50;;;4.67
24586;BMP280;12743;52.262;6.172;2023-01-31T06:48:15;100227.91;;;4.47
24586;BMP280;12743;52.262;6.172;2023-01-31T06:50:42;100234.81;;;4.51
24586;BMP280;12743;52.262;6.172;2023-01-31T06:53:09;100240.91;;;4.60
24586;BMP280;12743;52.262;6.172;2023-01-31T06:55:37;100245.13;;;4.70
24586;BMP280;12743;52.262;6.172;2023-01-31T06:58:04;100230.19;;;4.62
24586;BMP280;12743;52.262;6.172;2023-01-31T07:00:30;100218.63;;;4.54
24586;BMP280;12743;52.262;6.172;2023-01-31T07:02:57;100231.81;;;4.71
24586;BMP280;12743;52.262;6.172;2023-01-31T07:05:23;100236.25;;;4.71
24586;BMP280;12743;52.262;6.172;2023-01-31T07:07:50;100235.50;;;4.70
24586;BMP280;12743;52.262;6.172;2023-01-31T07:10:17;100236.91;;;4.76
24586;BMP280;12743;52.262;6.172;2023-01-31T07:12:43;100219.78;;;4.62
24586;BMP280;12743;52.262;6.172;2023-01-31T07:15:10;100231.91;;;4.80
24586;BMP280;12743;52.262;6.172;2023-01-31T07:17:37;100229.19;;;4.85
24586;BMP280;12743;52.262;6.172;2023-01-31T07:20:03;100188.00;;;4.65
24586;BMP280;12743;52.262;6.172;2023-01-31T07:22:30;100228.03;;;4.77
24586;BMP280;12743;52.262;6.172;2023-01-31T07:24:56;100217.63;;;4.77
24586;BMP280;12743;52.262;6.172;2023-01-31T07:27:23;100207.72;;;4.79
24586;BMP280;12743;52.262;6.172;2023-01-31T07:29:50;100212.72;;;4.76
24586;BMP280;12743;52.262;6.172;2023-01-31T07:32:16;100221.19;;;4.81
24586;BMP280;12743;52.262;6.172;2023-01-31T07:34:43;100221.97;;;4.82
24586;BMP280;12743;52.262;6.172;2023-01-31T07:37:10;100223.78;;;4.81
24586;BMP280;12743;52.262;6.172;2023-01-31T07:39:36;100201.94;;;4.82
24586;BMP280;12743;52.262;6.172;2023-01-31T07:42:03;100210.00;;;4.81
24586;BMP280;12743;52.262;6.172;2023-01-31T07:44:29;100200.09;;;4.83
24586;BMP280;12743;52.262;6.172;2023-01-31T07:46:56;100212.53;;;4.86
24586;BMP280;12743;52.262;6.172;2023-01-31T07:49:22;100213.88;;;4.83
24586;BMP280;12743;52.262;6.172;2023-01-31T07:51:49;100209.63;;;4.87
24586;BMP280;12743;52.262;6.172;2023-01-31T07:54:15;100186.63;;;4.67
24586;BMP280;12743;52.262;6.172;2023-01-31T07:56:42;100186.63;;;4.67
24586;BMP280;12743;52.262;6.172;2023-01-31T07:59:08;100215.19;;;4.94
24586;BMP280;12743;52.262;6.172;2023-01-31T08:01:35;100210.69;;;4.86
24586;BMP280;12743;52.262;6.172;2023-01-31T08:04:20;100199.53;;;4.86
24586;BMP280;12743;52.262;6.172;2023-01-31T08:06:49;100192.50;;;4.86
24586;BMP280;12743;52.262;6.172;2023-01-31T08:09:18;100196.00;;;4.90
24586;BMP280;12743;52.262;6.172;2023-01-31T08:11:44;100200.28;;;4.86
24586;BMP280;12743;52.262;6.172;2023-01-31T08:14:11;100133.53;;;4.46
24586;BMP280;12743;52.262;6.172;2023-01-31T08:16:38;100195.91;;;4.95
24586;BMP280;12743;52.262;6.172;2023-01-31T08:19:05;100170.72;;;4.82
24586;BMP280;12743;52.262;6.172;2023-01-31T08:21:31;100191.47;;;4.96
24586;BMP280;12743;52.262;6.172;2023-01-31T08:23:58;100171.97;;;4.85
24586;BMP280;12743;52.262;6.172;2023-01-31T08:26:25;100129.41;;;4.45
24586;BMP280;12743;52.262;6.172;2023-01-31T08:28:51;100176.75;;;4.91
24586;BMP280;12743;52.262;6.172;2023-01-31T08:31:23;100191.53;;;5.05
24586;BMP280;12743;52.262;6.172;2023-01-31T08:33:51;100187.88;;;5.06
24586;BMP280;12743;52.262;6.172;2023-01-31T08:36:25;100190.50;;;5.06
24586;BMP280;12743;52.262;6.172;2023-01-31T08:38:52;100190.94;;;5.08
24586;BMP280;12743;52.262;6.172;2023-01-31T08:41:22;100194.31;;;5.08
24586;BMP280;12743;52.262;6.172;2023-01-31T08:43:49;100184.94;;;5.07
24586;BMP280;12743;52.262;6.172;2023-01-31T08:46:26;100185.13;;;5.11
24586;BMP280;12743;52.262;6.172;2023-01-31T08:48:53;100175.50;;;5.11
24586;BMP280;12743;52.262;6.172;2023-01-31T08:51:20;100169.25;;;5.12
24586;BMP280;12743;52.262;6.172;2023-01-31T08:53:47;100169.72;;;5.14
24586;BMP280;12743;52.262;6.172;2023-01-31T08:56:14;100145.22;;;5.15
24586;BMP280;12743;52.262;6.172;2023-01-31T08:58:43;100162.84;;;5.18
24586;BMP280;12743;52.262;6.172;2023-01-31T09:01:15;100160.44;;;5.22
24586;BMP280;12743;52.262;6.172;2023-01-31T09:03:43;100144.63;;;5.18
24586;BMP280;12743;52.262;6.172;2023-01-31T09:06:17;100145.25;;;5.24
24586;BMP280;12743;52.262;6.172;2023-01-31T09:08:43;100140.22;;;5.27
24586;BMP280;12743;52.262;6.172;2023-01-31T09:11:11;100153.06;;;5.24
24586;BMP280;12743;52.262;6.172;2023-01-31T09:13:42;100138.06;;;5.21
24586;BMP280;12743;52.262;6.172;2023-01-31T09:16:10;100135.50;;;5.29
24586;BMP280;12743;52.262;6.172;2023-01-31T09:18:38;100139.16;;;5.28
24586;BMP280;12743;52.262;6.172;2023-01-31T09:21:07;100146.41;;;5.31
24586;BMP280;12743;52.262;6.172;2023-01-31T09:23:35;100162.00;;;5.31
24586;BMP280;12743;52.262;6.172;2023-01-31T09:26:02;100158.94;;;5.29
24586;BMP280;12743;52.262;6.172;2023-01-31T09:28:29;100159.88;;;5.33
24586;BMP280;12743;52.262;6.172;2023-01-31T09:31:08;100152.75;;;5.17
24586;BMP280;12743;52.262;6.172;2023-01-31T09:33:35;100161.13;;;5.36
24586;BMP280;12743;52.262;6.172;2023-01-31T09:36:05;100159.00;;;5.38
24586;BMP280;12743;52.262;6.172;2023-01-31T09:38:33;100148.13;;;5.36
24586;BMP280;12743;52.262;6.172;2023-01-31T09:41:03;100140.63;;;5.43
24586;BMP280;12743;52.262;6.172;2023-01-31T09:43:37;100145.44;;;5.49
24586;BMP280;12743;52.262;6.172;2023-01-31T09:46:08;100128.84;;;5.45
24586;BMP280;12743;52.262;6.172;2023-01-31T09:48:38;100105.09;;;5.47
24586;BMP280;12743;52.262;6.172;2023-01-31T09:51:09;100130.94;;;5.66
24586;BMP280;12743;52.262;6.172;2023-01-31T09:53:38;100113.59;;;5.52
24586;BMP280;12743;52.262;6.172;2023-01-31T10:01:37;100117.03;;;5.79
24586;BMP280;12743;52.262;6.172;2023-01-31T10:07:15;100127.94;;;5.89
24586;BMP280;12743;52.262;6.172;2023-01-31T10:09:48;100125.19;;;5.94
24586;BMP280;12743;52.262;6.172;2023-01-31T10:14:55;100118.13;;;6.03
24586;BMP280;12743;52.262;6.172;2023-01-31T10:17:39;100121.69;;;6.07
24586;BMP280;12743;52.262;6.172;2023-01-31T10:20:21;100115.72;;;6.07
24586;BMP280;12743;52.262;6.172;2023-01-31T10:22:57;100121.69;;;6.07
24586;BMP280;12743;52.262;6.172;2023-01-31T10:28:13;100125.25;;;6.11
24586;BMP280;12743;52.262;6.172;2023-01-31T10:30:43;100117.25;;;6.08
24586;BMP280;12743;52.262;6.172;2023-01-31T10:36:40;100126.47;;;6.23
24586;BMP280;12743;52.262;6.172;2023-01-31T10:39:51;100122.78;;;6.24
24586;BMP280;12743;52.262;6.172;2023-01-31T10:47:40;100123.09;;;6.31
24586;BMP280;12743;52.262;6.172;2023-01-31T10:50:21;100128.63;;;6.29
24586;BMP280;12743;52.262;6.172;2023-01-31T10:59:17;100096.69;;;6.06
24586;BMP280;12743;52.262;6.172;2023-01-31T11:01:46;100111.75;;;6.18
24586;BMP280;12743;52.262;6.172;2023-01-31T11:04:27;100108.34;;;6.17
24586;BMP280;12743;52.262;6.172;2023-01-31T11:06:57;100102.09;;;6.18
24586;BMP280;12743;52.262;6.172;2023-01-31T11:09:28;100115.75;;;6.24
24586;BMP280;12743;52.262;6.172;2023-01-31T11:12:01;100109.91;;;6.18
24586;BMP280;12743;52.262;6.172;2023-01-31T11:14:28;100107.41;;;6.13
24586;BMP280;12743;52.262;6.172;2023-01-31T11:17:05;100083.66;;;5.98
24586;BMP280;12743;52.262;6.172;2023-01-31T11:19:36;100065.88;;;5.91
24586;BMP280;12743;52.262;6.172;2023-01-31T11:22:04;100086.25;;;6.06
24586;BMP280;12743;52.262;6.172;2023-01-31T11:24:33;100090.56;;;6.11
24586;BMP280;12743;52.262;6.172;2023-01-31T11:27:12;100045.47;;;5.93
24586;BMP280;12743;52.262;6.172;2023-01-31T11:29:45;100084.44;;;6.07
24586;BMP280;12743;52.262;6.172;2023-01-31T11:32:18;100060.94;;;5.90
24586;BMP280;12743;52.262;6.172;2023-01-31T11:37:58;100056.84;;;5.97
24586;BMP280;12743;52.262;6.172;2023-01-31T11:42:57;100056.06;;;5.97
24586;BMP280;12743;52.262;6.172;2023-01-31T11:45:29;100064.81;;;5.92
24586;BMP280;12743;52.262;6.172;2023-01-31T11:47:58;100050.97;;;5.83
24586;BMP280;12743;52.262;6.172;2023-01-31T11:50:40;100072.00;;;5.95
24586;BMP280;12743;52.262;6.172;2023-01-31T11:53:17;100064.81;;;5.92
24586;BMP280;12743;52.262;6.172;2023-01-31T11:55:46;100067.88;;;5.94
24586;BMP280;12743;52.262;6.172;2023-01-31T11:58:21;100054.53;;;5.96
24586;BMP280;12743;52.262;6.172;2023-01-31T12:00:56;100061.09;;;5.93
24586;BMP280;12743;52.262;6.172;2023-01-31T12:03:24;100060.34;;;5.93
24586;BMP280;12743;52.262;6.172;2023-01-31T12:06:08;100070.91;;;5.96
24586;BMP280;12743;52.262;6.172;2023-01-31T12:08:36;100058.66;;;5.88
24586;BMP280;12743;52.262;6.172;2023-01-31T12:13:51;100048.72;;;5.99
24586;BMP280;12743;52.262;6.172;2023-01-31T12:16:23;100049.91;;;6.01
24586;BMP280;12743;52.262;6.172;2023-01-31T12:24:25;100022.81;;;6.02
24586;BMP280;12743;52.262;6.172;2023-01-31T12:35:19;100018.97;;;6.26
24586;BMP280;12743;52.262;6.172;2023-01-31T12:38:15;100016.34;;;6.34
24586;BMP280;12743;52.262;6.172;2023-01-31T12:41:06;100012.63;;;6.44
24586;BMP280;12743;52.262;6.172;2023-01-31T12:43:50;100000.03;;;6.54
24586;BMP280;12743;52.262;6.172;2023-01-31T13:05:55;99947.63;;;6.85
24586;BMP280;12743;52.262;6.172;2023-01-31T13:08:27;99946.78;;;6.93
24586;BMP280;12743;52.262;6.172;2023-01-31T13:11:27;99936.19;;;6.98
24586;BMP280;12743;52.262;6.172;2023-01-31T13:13:57;99930.78;;;7.03
24586;BMP280;12743;52.262;6.172;2023-01-31T13:16:30;99916.66;;;7.04
24586;BMP280;12743;52.262;6.172;2023-01-31T13:19:04;99910.41;;;7.17
24586;BMP280;12743;52.262;6.172;2023-01-31T13:21:38;99899.97;;;7.17
24586;BMP280;12743;52.262;6.172;2023-01-31T13:24:11;99892.91;;;7.18
24586;BMP280;12743;52.262;6.172;2023-01-31T13:26:44;99883.47;;;7.25
24586;BMP280;12743;52.262;6.172;2023-01-31T13:29:17;99886.66;;;7.31
24586;BMP280;12743;52.262;6.172;2023-01-31T13:31:49;99860.41;;;7.07
24586;BMP280;12743;52.262;6.172;2023-01-31T13:34:25;99891.69;;;7.36
24586;BMP280;12743;52.262;6.172;2023-01-31T13:36:58;99889.66;;;7.41
24586;BMP280;12743;52.262;6.172;2023-01-31T13:39:30;99890.25;;;7.47
24586;BMP280;12743;52.262;6.172;2023-01-31T13:41:58;99889.38;;;7.55
24586;BMP280;12743;52.262;6.172;2023-01-31T13:44:25;99894.09;;;7.62
24586;BMP280;12743;52.262;6.172;2023-01-31T13:46:56;99896.38;;;7.63
24586;BMP280;12743;52.262;6.172;2023-01-31T13:49:27;99894.69;;;7.67
24586;BMP280;12743;52.262;6.172;2023-01-31T13:51:57;99894.47;;;7.72
24586;BMP280;12743;52.262;6.172;2023-01-31T13:54:28;99900.44;;;7.61
24586;BMP280;12743;52.262;6.172;2023-01-31T13:56:58;99884.78;;;7.52
24586;BMP280;12743;52.262;6.172;2023-01-31T13:59:28;99896.28;;;7.60
24586;BMP280;12743;52.262;6.172;2023-01-31T14:01:58;99905.38;;;7.54
24586;BMP280;12743;52.262;6.172;2023-01-31T14:04:31;99907.66;;;7.55
24586;BMP280;12743;52.262;6.172;2023-01-31T14:09:37;99915.50;;;7.55
24586;BMP280;12743;52.262;6.172;2023-01-31T14:17:10;99906.78;;;7.72
24586;BMP280;12743;52.262;6.172;2023-01-31T14:25:44;99950.16;;;7.85
24586;BMP280;12743;52.262;6.172;2023-01-31T14:28:10;99962.81;;;7.83
24586;BMP280;12743;52.262;6.172;2023-01-31T14:35:57;99997.03;;;7.90
24586;BMP280;12743;52.262;6.172;2023-01-31T14:38:34;100010.66;;;7.95
24586;BMP280;12743;52.262;6.172;2023-01-31T14:47:41;100066.31;;;7.96
24586;BMP280;12743;52.262;6.172;2023-01-31T14:50:22;100077.44;;;7.93
24586;BMP280;12743;52.262;6.172;2023-01-31T14:55:46;100151.72;;;7.92
24586;BMP280;12743;52.262;6.172;2023-01-31T14:58:19;100149.47;;;7.82
24586;BMP280;12743;52.262;6.172;2023-01-31T15:00:53;100179.25;;;7.89
24586;BMP280;12743;52.262;6.172;2023-01-31T15:03:29;100198.00;;;7.91
24586;BMP280;12743;52.262;6.172;2023-01-31T15:06:12;100218.66;;;7.84
24586;BMP280;12743;52.262;6.172;2023-01-31T15:08:44;100308.84;;;7.99
24586;BMP280;12743;52.262;6.172;2023-01-31T15:14:31;100342.84;;;7.99
24586;BMP280;12743;52.262;6.172;2023-01-31T15:17:18;100358.53;;;7.99
24586;BMP280;12743;52.262;6.172;2023-01-31T15:20:20;100377.19;;;7.89
24586;BMP280;12743;52.262;6.172;2023-01-31T15:22:49;100395.47;;;7.97
24586;BMP280;12743;52.262;6.172;2023-01-31T15:25:31;100372.75;;;7.81
24586;BMP280;12743;52.262;6.172;2023-01-31T15:27:59;100390.09;;;7.94
24586;BMP280;12743;52.262;6.172;2023-01-31T15:30:27;100416.84;;;7.99
24586;BMP280;12743;52.262;6.172;2023-01-31T15:33:05;100397.47;;;7.92
24586;BMP280;12743;52.262;6.172;2023-01-31T15:35:49;100380.72;;;7.84
24586;BMP280;12743;52.262;6.172;2023-01-31T15:38:43;100379.78;;;7.89
24586;BMP280;12743;52.262;6.172;2023-01-31T15:41:37;100412.72;;;7.90
24586;BMP280;12743;52.262;6.172;2023-01-31T15:44:24;100411.47;;;7.87
24586;BMP280;12743;52.262;6.172;2023-01-31T15:46:53;100428.69;;;7.88
24586;BMP280;12743;52.262;6.172;2023-01-31T15:49:29;100415.94;;;7.87
24586;BMP280;12743;52.262;6.172;2023-01-31T15:52:19;100435.47;;;7.89
24586;BMP280;12743;52.262;6.172;2023-01-31T15:54:57;100429.31;;;7.77
24586;BMP280;12743;52.262;6.172;2023-01-31T15:57:27;100476.41;;;7.94
24586;BMP280;12743;52.262;6.172;2023-01-31T15:59:55;100467.91;;;7.88
24586;BMP280;12743;52.262;6.172;2023-01-31T16:02:27;100465.63;;;7.87
24586;BMP280;12743;52.262;6.172;2023-01-31T16:04:55;100494.81;;;7.89
24586;BMP280;12743;52.262;6.172;2023-01-31T16:07:24;100487.75;;;7.89
24586;BMP280;12743;52.262;6.172;2023-01-31T16:09:55;100473.75;;;7.68
24586;BMP280;12743;52.262;6.172;2023-01-31T16:12:23;100461.28;;;7.65
24586;BMP280;12743;52.262;6.172;2023-01-31T16:14:51;100501.16;;;7.88
24586;BMP280;12743;52.262;6.172;2023-01-31T16:17:28;100509.28;;;7.86
24586;BMP280;12743;52.262;6.172;2023-01-31T16:19:54;100497.63;;;7.84
24586;BMP280;12743;52.262;6.172;2023-01-31T16:22:27;100512.19;;;7.85
24586;BMP280;12743;52.262;6.172;2023-01-31T16:24:59;100476.38;;;7.77
24586;BMP280;12743;52.262;6.172;2023-01-31T16:27:29;100499.75;;;7.82
24586;BMP280;12743;52.262;6.172;2023-01-31T16:29:57;100521.16;;;7.84
24586;BMP280;12743;52.262;6.172;2023-01-31T16:32:27;100514.22;;;7.71
24586;BMP280;12743;52.262;6.172;2023-01-31T16:35:00;100508.06;;;7.67
24586;BMP280;12743;52.262;6.172;2023-01-31T16:40:24;100479.75;;;7.52